WEATHER DATA

YESTERDAY
Time Temp. Dewp. Hum. Wind dir Wind speed Wind gust Bar. 1h Prec. 24h Prec.
00:09 13 11.2 89 54 1.4 2.2 1017.3 0.0000 0.0000
00:19 13 11.2 89 53 1.4 2.2 1017.3 0.0000 0.0000
00:29 12.9 11.1 89 50 1.7 2.5 1017.3 0.0000 0.0000
00:39 12.7 10.9 89 52 1.7 2.2 1017 0.0000 0.0000
00:54 12.4 10.8 90 52 1.4 2.2 1016.9 0.0000 0.0000
01:04 12.4 11 91 61 1.7 2.5 1016.9 0.0000 0.0000
01:14 12.7 11.4 92 66 1.7 2.5 1016.9 0.0000 0.0000
01:24 13 11.6 91 77 2.2 2.5 1016.7 0.0000 0.0000
01:34 13.2 11.8 91 72 1.7 2.5 1016.6 0.0000 0.0000
01:44 13.3 11.7 90 70 1.7 2.2 1016.2 0.0000 0.0000
01:55 13.4 11.6 89 74 1.7 2.5 1016.5 0.0000 0.0000
02:04 13.5 11.7 89 78 2.2 2.8 1016.3 0.0000 0.0000
02:14 13.5 11.7 89 76 2.2 2.8 1016.3 0.0000 0.0000
02:24 13.5 11.7 89 73 2.2 3.6 1016.3 0.0000 0.0000
02:35 13.4 11.6 89 77 1.7 2.8 1016.3 0.0000 0.0000
02:45 13.4 11.6 89 66 1.7 2.5 1016.3 0.0000 0.0000
02:54 13.3 11.4 88 67 1.7 2.2 1016.3 0.0000 0.0000
03:05 13.2 11.4 89 53 1.4 1.7 1016.2 0.0000 0.0000
03:15 13.1 11.3 89 65 1.7 2.8 1016.2 0.0000 0.0000
03:25 13 11.2 89 72 1.7 2.5 1016 0.0000 0.0000
03:35 13 11.2 89 68 1.7 2.5 1015.7 0.0000 0.0000
03:46 12.9 11.3 90 56 1.4 2.2 1015.8 0.0000 0.0000
03:56 12.7 11.1 90 54 1.4 2.2 1015.9 0.0000 0.0000
04:06 12.6 11 90 54 1.7 2.2 1015.8 0.0000 0.0000
04:16 12.5 10.9 90 54 1.4 2.2 1015.7 0.0000 0.0000
04:27 12.3 10.7 90 54 1.4 2.2 1015.8 0.0000 0.0000
04:37 12.2 10.8 91 54 1.4 2.2 1015.8 0.0000 0.0000
04:47 12.2 10.8 91 52 1.4 2.5 1015.9 0.0000 0.0000
04:57 12.2 10.9 92 52 1.4 2.2 1015.9 0.0000 0.0000
05:08 12.2 10.9 92 51 1.7 2.2 1015.7 0.0000 0.0000
05:18 12.2 11.1 93 56 1.4 2.2 1015.9 0.0000 0.0000
05:28 12.3 11.2 93 51 1.4 2.2 1016.2 0.0000 0.0000
05:39 12.3 11.2 93 65 1.7 2.2 1016.2 0.0000 0.0000
05:49 12.3 11.2 93 60 1.7 2.8 1016.1 0.0000 0.0000
05:59 12.4 11.5 94 62 1.7 2.2 1016.3 0.0000 0.0000
06:09 12.5 11.6 94 50 1.4 2.5 1016.3 0.0000 0.0000
06:19 12.6 11.7 94 55 1.4 2.2 1016.9 0.0000 0.0000
06:29 12.6 11.7 94 46 1.4 2.2 1016.8 0.0000 0.0000
06:39 12.7 11.8 94 48 1.4 2.2 1017.1 0.0000 0.0000
06:49 12.8 11.9 94 48 1.4 1.7 1017 0.0000 0.0000
07:00 12.8 11.9 94 47 1.1 2.2 1017.2 0.0000 0.0000
07:10 12.9 12 94 42 1.4 3.1 1017.4 0.0000 0.0000
07:20 13.1 12.2 94 51 1.1 2.5 1017.5 0.0000 0.0000
07:32 13.2 12.3 94 40 1.1 2.2 1017.9 0.4090 0.4000
07:53 13.2 12.3 94 25 1.4 2.5 1018.2 3.4090 3.4000
08:03 13.1 12.3 95 32 1.4 2.8 1018.1 4.0910 4.1000
08:13 13.1 12.3 95 42 1.4 2.2 1018.4 4.5000 4.5000
08:23 13.2 12.6 96 41 1.4 2.5 1018.5 4.3630 4.8000
08:33 13.2 12.6 96 41 1.4 2.2 1018.6 2.9990 4.9000
08:43 13.2 12.6 96 39 1.7 2.5 1018.6 1.4990 4.9000
08:53 13.2 12.7 97 39 1.4 2.2 1018.6 0.9530 5.0000
09:03 13.2 12.7 97 37 1.4 2.5 1018.5 0.8160 5.3000
09:13 13.3 12.8 97 30 1.1 1.7 1018.6 0.9530 5.7000
09:23 13.3 12.8 97 36 1.1 2.2 1018.4 1.0890 6.0000
09:34 13.3 12.8 97 43 1.1 1.7 1018.7 1.3620 6.3000
09:44 13.4 13.1 98 40 1.1 2.2 1018.6 1.6350 6.7000
09:53 13.4 13.1 98 40 1.4 2.2 1018.8 2.3180 7.6000
10:04 13.3 13 98 29 1.4 2.5 1018.8 2.8640 8.3000
10:14 13 12.5 97 29 1.4 2.8 1019 2.8640 8.7000
10:24 12.9 12.6 98 31 1.4 3.1 1019 3.5460 9.8000
10:34 12.8 12.5 98 36 1.4 2.8 1019.3 3.8190 10.2000
10:44 12.7 12.4 98 14 1.4 2.8 1019.5 3.6820 10.6000
10:54 12.7 12.4 98 11 1.4 3.6 1019.7 3.0000 11.0000
11:04 12.6 12.3 98 23 1.4 3.1 1019.6 2.8630 11.5000
11:14 12.6 12.3 98 25 1.4 2.2 1019.8 2.8640 12.0000
11:25 12.6 12.3 98 19 1.7 3.1 1019.8 2.1810 12.3000
11:35 12.5 12.2 98 7 1.7 2.8 1019.6 2.4540 12.8000
11:44 12.4 12.1 98 7 1.4 2.8 1019.6 2.4540 13.2000
11:54 12.3 12 98 6 1.4 2.2 1019.8 2.4540 13.6000
12:05 12.3 12 98 327 1.4 2.8 1019.7 2.1800 13.9000
12:15 12.3 12 98 10 1.4 2.5 1020 1.9070 14.0000
12:24 12.3 12 98 20 1.4 2.2 1019.8 2.1800 14.9000
12:35 12.3 12 98 16 1.4 3.1 1019.8 2.4530 15.4000
12:45 12.3 12 98 23 1.4 2.2 1019.7 2.8610 16.4000
12:55 12.2 11.9 98 32 1.4 2.2 1019.7 2.8610 16.6000
13:05 12.2 11.9 98 35 1.4 2.5 1019.8 2.8610 16.9000
13:15 12.1 11.8 98 39 1.4 2.5 1019.9 2.9970 17.3000
13:25 12.1 11.8 98 41 1.7 2.5 1020 2.5880 17.6000
13:35 12.1 11.8 98 35 1.4 2.5 1020 2.0430 18.0000
13:46 12.1 11.8 98 40 1.4 2.2 1020.4 2.7250 19.2000
13:53 12 11.7 98 37 2.2 6.1 1020.4 5.4520 22.2000
14:04 11.8 11.5 98 29 4.2 6.7 1020.5 7.2250 24.3000
14:14 11.7 11.4 98 357 1.7 3.1 1020.6 8.1790 25.6000
14:24 11.6 11.3 98 305 1.4 3.6 1020.5 8.1790 26.0000
14:39 11.6 11.4 99 9 2.2 7.5 1020.5 8.4520 26.7000
14:49 11.6 11.4 99 37 6.1 7.8 1020.5 6.4080 27.4000
14:58 11.5 11.3 99 39 5.6 6.9 1020.5 4.6360 27.8000
15:08 11.5 11.3 99 43 6.4 8.1 1020.1 2.8630 28.1000
15:19 11.5 11.3 99 42 6.1 7.8 1020.4 2.5900 28.4000
15:29 11.5 11.3 99 43 6.1 6.9 1020.1 2.1800 28.5000
15:39 11.6 11.4 99 43 6.1 6.9 1020.5 1.7710 28.5000
15:51 11.6 11.4 99 42 5.6 6.7 1020.4 1.0890 28.5000
16:01 11.8 11.6 99 42 3.6 5.6 1020.2 0.6800 28.5000
16:12 11.8 11.6 99 40 3.6 4.2 1020.5 0.5440 28.6000
16:21 11.8 11.6 99 42 3.6 4.4 1020.4 0.2720 28.6000
16:31 11.7 11.5 99 42 3.1 4.4 1020.2 0.1360 28.6000
16:42 11.7 11.5 99 43 2.8 4.2 1020.2 0.1360 28.6000
16:52 11.8 11.6 99 44 2.5 3.9 1020.5 0.1360 28.6000
17:02 11.9 11.7 99 45 1.4 2.2 1020.5 0.1360 28.6000
17:12 11.9 11.7 99 45 1.4 2.2 1020.5 0.1360 28.8000
17:23 12 11.8 99 50 1.1 2.2 1020.5 0.1360 28.8000
17:32 12 11.8 99 43 1.4 2.5 1020.5 0.2720 28.9000
17:40 12 11.8 99 48 1.4 2.2 1020.5 0.4080 29.0000
17:49 11.9 11.6 98 46 1.4 2.2 1020.6 0.5440 29.2000
18:00 11.9 11.6 98 47 1.4 2.2 1020.8 0.5440 29.2000
18:09 11.8 11.5 98 45 1.4 2.2 1020.7 0.6800 29.4000
18:20 11.8 11.5 98 46 1.4 2.2 1020.9 0.6800 29.4000
18:30 11.7 11.4 98 46 1.1 1.7 1020.9 0.5440 29.4000
18:40 11.6 11.3 98 51 1.4 2.2 1020.9 0.5440 29.6000
18:50 11.5 11.2 98 45 1.1 2.2 1020.9 0.5440 29.7000
19:00 11.5 11.2 98 49 1.4 2.2 1021 0.5440 29.7000
19:10 11.4 11.1 98 45 1.4 2.2 1021.1 0.4080 29.9000
19:21 11.2 10.9 98 45 1.4 2.2 1021 0.4080 29.9000
19:31 11.2 10.9 98 45 1.4 2.2 1021.2 0.4080 29.9000
19:41 11.1 10.8 98 45 1.4 2.2 1021.2 0.4080 30.0000
19:51 11.1 10.8 98 45 1.4 2.2 1021.4 0.2720 30.0000
20:01 11 10.7 98 45 1.4 2.2 1021.4 0.2720 30.0000
20:11 11 10.7 98 48 1.4 2.2 1021.3 0.1360 30.0000
20:21 11 10.7 98 45 1.4 2.2 1021.4 0.2720 30.1000
20:31 10.9 10.6 98 48 1.4 2.2 1021.5 0.2720 30.1000
20:42 10.9 10.6 98 46 1.4 2.2 1021.5 0.1360 30.1000
20:52 11 10.7 98 45 1.4 2.2 1021.6 0.1360 30.1000
21:01 10.9 10.6 98 43 1.4 2.5 1021.6 0.1360 30.1000
21:12 10.9 10.7 99 45 1.4 2.2 1021.8 0.1360 30.1000
21:23 10.9 10.7 99 45 1.4 2.2 1021.8 0.0000 30.1000
21:32 10.9 10.7 99 45 1.4 2.2 1021.7 0.0000 30.1000
21:42 10.9 10.7 99 48 1.4 2.2 1021.7 0.0000 30.1000
21:53 10.9 10.7 99 47 1.4 2.2 1021.6 0.0000 30.1000
22:03 11 10.8 99 46 1.1 1.7 1021.7 0.0000 30.1000
22:13 11 10.8 99 50 1.1 1.7 1021.9 0.0000 30.1000
22:33 11.1 10.9 99 49 1.4 2.2 1021.8 0.0000 30.1000
22:43 11.1 10.9 99 49 1.4 1.7 1021.8 0.0000 30.1000
22:53 11.1 10.9 99 49 1.4 1.7 1021.8 0.0000 30.1000
23:04 11.1 10.9 99 48 1.4 2.2 1021.8 0.0000 30.1000
23:13 11.2 11 99 47 1.4 1.7 1021.8 0.0000 30.1000
23:23 11.2 11 99 48 1.4 2.2 1021.8 0.0000 30.1000
23:33 11.2 11 99 45 1.4 2.2 1021.9 0.0000 30.1000
23:44 11.2 11 99 47 1.1 1.7 1022 0.0000 30.1000
23:53 11.2 11 99 47 1.4 2.2 1022 0.0000

DAY STATISTIC

2021-09-19
TEMPERATURE
AVERAGE
12.2
HIGH
13.5
02:04
LOW
10.9
20:31
PRESSURE
AVERAGE
1019.1
HIGH
1022.0
23:44
LOW
1015.7
03:35
DEWPOINT
AVERAGE
11.5
HIGH
13.1
09:44
LOW
10.6
20:31
HUMIDITY
AVERAGE
96
HIGH
99
14:39
LOW
88
02:54
WIND SPEED
AVERAGE
1.8
HIGH
6.4
15:08
WIND GUST
AVERAGE
2.8
HIGH
8.1
15:08
WIND DIRECTION
PREVAILING
NE
83.5%
N
7.9
NE
83.5
E
7.2
SE
0.0
S
0.0
SW
0.0
W
0.0
NW
1.4
PRECIPITATION
RAIN HOUR
8.5
RAIN DAY
30.1
TEMPERATURE (°C)
LOW
10.9
HIGH
13.5
AVERAGE
12.2
PRESSURE (hpa)
LOW
1015.7
HIGH
1022.0
AVERAGE
1019.1
DEVICE